Date,TemperatureHighF,TemperatureAvgF,TemperatureLowF,DewpointHighF,DewpointAvgF,DewpointLowF,HumidityHigh,HumidityAvg,HumidityLow,PressureMaxIn,PressureMinIn,WindSpeedMaxMPH,WindSpeedAvgMPH,GustSpeedMaxMPH,PrecipitationSumIn
2013-6-1,90.8,79.2,70.1,72.6,66.6,60.8,99,69,39,30.17,30.05,10,1,10,0.00
2013-6-2,79.8,74.8,70.2,78.2,71.9,66.7,100,91,70,30.08,29.94,7,1,7,1.06
2013-6-3,87.0,74.5,67.4,76.9,71.0,67.0,100,90,53,30.00,29.88,7,0,7,0.03
2013-6-4,87.5,76.5,67.1,74.7,68.2,61.4,100,79,44,30.09,29.97,7,1,7,0.01
2013-6-5,86.0,75.5,70.5,75.5,71.3,68.5,100,88,57,30.11,29.99,10,1,10,0.65
2013-6-6,79.8,72.3,67.8,77.6,72.1,67.7,100,99,84,30.02,29.82,8,0,8,0.69
2013-6-7,87.8,75.0,68.2,78.1,72.3,67.0,100,93,57,29.87,29.70,9,1,9,0.12
2013-6-8,88.3,77.0,67.7,74.1,69.5,64.2,100,81,48,30.11,29.85,7,1,7,0.01
2013-6-9,88.4,74.8,68.3,77.7,72.1,68.2,100,93,56,30.17,30.08,10,0,10,1.61
2013-6-10,81.5,75.2,70.4,78.7,72.8,68.9,100,93,68,30.10,29.95,12,2,12,0.50
2013-6-11,91.1,79.6,71.1,77.9,70.7,59.9,100,79,37,30.04,29.97,7,1,7,0.16
2013-6-12,96.3,81.2,67.0,81.8,72.1,65.5,100,78,40,30.06,29.97,7,1,7,0.00
2013-6-13,98.0,83.6,73.2,79.6,72.5,64.0,100,74,35,29.97,29.74,15,2,15,0.01
2013-6-14,89.3,76.4,63.6,73.1,61.2,54.4,100,65,31,30.07,29.83,10,1,10,0.01
2013-6-15,89.0,74.3,60.8,67.5,61.4,57.6,100,69,36,30.17,30.07,9,1,9,0.00
2013-6-16,91.8,77.1,63.9,73.0,65.9,60.1,100,73,37,30.18,30.05,9,1,9,0.00
2013-6-17,86.0,77.1,71.1,79.5,74.3,68.2,100,92,62,30.08,29.98,18,1,18,1.62
2013-6-18,86.1,76.1,71.5,78.7,74.3,71.5,100,95,70,30.01,29.82,13,1,13,0.49
2013-6-19,86.5,76.1,69.4,73.0,68.8,62.8,100,81,46,30.15,29.94,6,1,6,0.00
2013-6-20,85.6,75.6,67.8,74.5,68.3,62.6,100,81,49,30.26,30.13,7,1,7,0.01
2013-6-21,87.3,75.8,65.6,70.1,65.8,59.0,100,75,41,30.30,30.20,6,1,6,0.00
2013-6-22,88.3,76.2,64.4,73.7,66.0,59.1,100,75,40,30.26,30.14,7,1,7,0.00
2013-6-23,92.2,78.6,69.3,75.8,71.4,65.2,100,82,44,30.25,30.14,6,0,6,0.02
2013-6-24,93.2,80.6,70.1,78.2,71.7,65.9,100,78,43,30.25,30.13,8,1,8,0.02
2013-6-25,94.7,81.4,72.6,76.5,72.3,65.9,100,78,40,30.19,30.06,10,1,10,0.00
2013-6-26,94.8,81.7,73.1,78.2,73.5,68.2,100,79,43,30.09,29.94,8,1,8,0.00
2013-6-27,95.3,82.3,74.1,81.8,75.3,70.0,100,83,45,30.00,29.76,12,2,12,0.55
2013-6-28,97.0,82.9,70.7,80.6,71.9,65.7,100,74,39,29.83,29.65,10,2,10,0.01
2013-6-29,92.5,81.5,71.0,76.7,70.2,62.3,100,73,38,29.75,29.66,9,1,9,0.00
2013-6-30,88.8,78.3,72.0,78.6,73.3,65.7,100,86,47,29.86,29.73,5,0,5,0.00